createdAt,value
2017-12-25T00:00:13.317Z,88.20
2017-12-25T00:02:39.601Z,88.40
2017-12-25T00:05:06.569Z,89.80
2017-12-25T00:07:32.804Z,89.80
2017-12-25T00:09:59.038Z,89.90
2017-12-25T00:12:26.009Z,90.10
2017-12-25T00:14:52.240Z,90.00
2017-12-25T00:17:18.593Z,89.80
2017-12-25T00:19:45.249Z,89.00
2017-12-25T00:22:12.216Z,89.50
2017-12-25T00:24:38.462Z,89.50
2017-12-25T00:27:04.668Z,89.00
2017-12-25T00:29:31.722Z,90.40
2017-12-25T00:31:58.688Z,90.10
2017-12-25T00:34:24.953Z,90.10
2017-12-25T00:36:51.264Z,90.00
2017-12-25T00:39:18.392Z,90.30
2017-12-25T00:41:44.637Z,90.20
2017-12-25T00:44:10.853Z,90.00
2017-12-25T00:46:37.064Z,90.20
2017-12-25T00:49:04.048Z,89.80
2017-12-25T00:51:30.312Z,89.70
2017-12-25T00:53:56.545Z,90.00
2017-12-25T00:56:22.782Z,90.20
2017-12-25T00:58:49.025Z,90.00
2017-12-25T01:01:15.264Z,88.80
2017-12-25T01:03:41.525Z,88.60
2017-12-25T01:06:07.768Z,88.30
2017-12-25T01:08:34.022Z,88.50
2017-12-25T01:11:01.769Z,88.90
2017-12-25T01:13:27.996Z,88.60
2017-12-25T01:15:54.231Z,88.70
2017-12-25T01:18:20.456Z,87.40
2017-12-25T01:20:46.677Z,87.80
2017-12-25T01:23:14.382Z,86.70
2017-12-25T01:25:40.676Z,86.70
2017-12-25T01:28:07.822Z,85.90
2017-12-25T01:30:34.093Z,86.50
2017-12-25T01:33:01.099Z,86.00
2017-12-25T01:35:27.400Z,86.00
2017-12-25T01:37:53.674Z,86.30
2017-12-25T01:40:20.726Z,87.50
2017-12-25T01:42:47.489Z,87.80
2017-12-25T01:45:14.457Z,88.80
2017-12-25T01:47:40.533Z,88.10
2017-12-25T01:50:08.505Z,86.70
2017-12-25T01:52:34.642Z,87.10
2017-12-25T01:55:00.864Z,87.20
2017-12-25T01:57:27.086Z,87.80
2017-12-25T02:02:51.270Z,87.50
2017-12-25T02:05:42.166Z,87.70
2017-12-25T02:08:20.836Z,87.60
2017-12-25T02:10:47.121Z,88.10
2017-12-25T02:13:13.741Z,88.80
2017-12-25T02:15:40.162Z,89.60
2017-12-25T02:18:07.177Z,90.10
2017-12-25T02:20:33.443Z,90.00
2017-12-25T02:22:59.750Z,90.30
2017-12-25T02:25:25.810Z,90.20
2017-12-25T02:27:51.916Z,90.70
2017-12-25T02:30:17.981Z,90.70
2017-12-25T02:32:44.042Z,90.80
2017-12-25T02:35:10.117Z,90.70
2017-12-25T02:37:36.183Z,91.10
2017-12-25T02:40:02.265Z,90.80
2017-12-25T02:42:28.347Z,90.60
2017-12-25T02:44:54.450Z,91.00
2017-12-25T02:47:21.284Z,91.10
2017-12-25T02:49:47.341Z,91.00
2017-12-25T02:52:14.233Z,91.00
2017-12-25T02:54:40.296Z,91.00
2017-12-25T02:57:06.395Z,91.40
2017-12-25T02:59:32.456Z,91.40
2017-12-25T03:01:58.509Z,91.30
2017-12-25T03:04:26.969Z,91.40
2017-12-25T03:06:53.094Z,91.30
2017-12-25T03:09:19.161Z,91.40
2017-12-25T03:11:45.213Z,91.40
2017-12-25T03:14:11.273Z,91.40
2017-12-25T03:16:38.099Z,91.10
2017-12-25T03:19:04.161Z,90.90
2017-12-25T03:21:31.048Z,91.10
2017-12-25T03:23:57.117Z,90.80
2017-12-25T03:26:23.193Z,90.70
2017-12-25T03:28:49.293Z,91.00
2017-12-25T03:31:15.367Z,91.20
2017-12-25T03:33:41.450Z,90.80
2017-12-25T03:36:07.629Z,90.70
2017-12-25T03:38:33.696Z,91.40
2017-12-25T03:41:00.498Z,90.80
2017-12-25T03:43:26.562Z,90.80
2017-12-25T03:45:52.690Z,91.00
2017-12-25T03:48:18.737Z,91.00
2017-12-25T03:50:44.825Z,91.00
2017-12-25T03:53:10.890Z,91.00
2017-12-25T03:55:36.957Z,91.30
2017-12-25T03:58:04.802Z,91.40
2017-12-25T04:00:30.877Z,91.40
2017-12-25T04:02:56.938Z,91.40
2017-12-25T04:05:23.813Z,91.40
2017-12-25T04:07:49.886Z,91.30
2017-12-25T04:10:15.933Z,91.40
2017-12-25T04:12:42.018Z,91.40
2017-12-25T04:15:08.896Z,90.90
2017-12-25T04:17:34.982Z,90.90
2017-12-25T04:20:01.797Z,90.90
2017-12-25T04:22:27.868Z,90.90
2017-12-25T04:24:53.932Z,91.40
2017-12-25T04:27:20.026Z,91.20
2017-12-25T04:29:46.094Z,91.40
2017-12-25T04:32:12.885Z,91.00
2017-12-25T04:34:38.928Z,90.90
2017-12-25T04:37:04.997Z,90.70
2017-12-25T04:39:31.068Z,91.20
2017-12-25T04:41:57.851Z,90.60
2017-12-25T04:44:23.889Z,90.60
2017-12-25T04:46:50.016Z,90.60
2017-12-25T04:49:16.010Z,90.70
2017-12-25T04:51:42.806Z,90.90
2017-12-25T04:54:08.992Z,90.80
2017-12-25T04:56:35.072Z,90.70
2017-12-25T04:59:01.150Z,90.90
2017-12-25T05:01:27.378Z,91.00
2017-12-25T05:03:54.686Z,91.20
2017-12-25T05:06:20.726Z,90.90
2017-12-25T05:08:47.535Z,91.30
2017-12-25T05:11:13.588Z,91.20
2017-12-25T05:13:39.634Z,90.90
2017-12-25T05:16:05.681Z,90.80
2017-12-25T05:18:31.724Z,90.40
2017-12-25T05:20:57.961Z,90.50
2017-12-25T05:23:24.197Z,90.40
2017-12-25T05:25:50.429Z,90.00
2017-12-25T05:28:16.656Z,90.10
2017-12-25T05:30:42.886Z,90.00
2017-12-25T05:33:09.136Z,90.00
2017-12-25T05:35:35.356Z,89.30
2017-12-25T05:38:02.330Z,88.60
2017-12-25T05:40:28.574Z,88.60
2017-12-25T05:42:54.806Z,88.70
2017-12-25T05:45:21.037Z,88.60
2017-12-25T05:47:47.262Z,89.20
2017-12-25T05:50:14.256Z,88.60
2017-12-25T05:52:40.484Z,88.60
2017-12-25T05:55:07.433Z,88.10
2017-12-25T05:57:33.669Z,88.00
2017-12-25T06:00:01.118Z,88.40
2017-12-25T06:02:27.322Z,88.70
2017-12-25T06:04:53.558Z,88.70
2017-12-25T06:07:19.810Z,88.60
2017-12-25T06:09:46.053Z,88.30
2017-12-25T06:12:12.289Z,88.90
2017-12-25T06:14:38.546Z,89.50
2017-12-25T06:17:04.778Z,88.60
2017-12-25T06:19:31.006Z,88.80
2017-12-25T06:21:57.288Z,89.00
2017-12-25T06:24:24.291Z,87.30
2017-12-25T06:26:50.558Z,87.20
2017-12-25T06:29:16.781Z,87.10
2017-12-25T06:31:43.828Z,86.90
2017-12-25T06:34:10.071Z,86.80
2017-12-25T06:36:37.132Z,86.20
2017-12-25T06:39:03.391Z,86.10
2017-12-25T06:41:29.640Z,85.80
2017-12-25T06:43:55.857Z,85.30
2017-12-25T06:46:22.117Z,85.80
2017-12-25T06:48:48.361Z,84.70
2017-12-25T06:51:14.807Z,84.50
2017-12-25T06:53:41.154Z,83.70
2017-12-25T06:56:07.397Z,83.40
2017-12-25T06:58:33.626Z,83.00
2017-12-25T07:00:59.881Z,83.40
2017-12-25T07:03:26.129Z,83.00
2017-12-25T07:05:52.387Z,82.10
2017-12-25T07:08:18.640Z,82.60
2017-12-25T07:10:44.926Z,82.10
2017-12-25T07:13:11.141Z,81.70
2017-12-25T07:15:37.398Z,81.60
2017-12-25T07:18:03.666Z,81.20
2017-12-25T07:20:29.933Z,80.40
2017-12-25T07:22:56.998Z,79.70
2017-12-25T07:25:24.034Z,80.20
2017-12-25T07:27:50.296Z,80.20
2017-12-25T07:30:16.559Z,80.00
2017-12-25T07:32:42.822Z,79.30
2017-12-25T07:35:09.787Z,80.20
2017-12-25T07:37:36.000Z,80.10
2017-12-25T07:40:03.020Z,79.40
2017-12-25T07:42:29.284Z,79.30
2017-12-25T07:44:55.562Z,78.90
2017-12-25T07:47:21.809Z,78.00
2017-12-25T07:49:48.149Z,78.80
2017-12-25T07:52:14.428Z,77.60
2017-12-25T07:54:40.661Z,78.10
2017-12-25T07:57:06.914Z,77.90
2017-12-25T07:59:33.381Z,78.10
2017-12-25T08:01:59.625Z,78.00
2017-12-25T08:04:25.843Z,78.40
2017-12-25T08:06:52.094Z,78.60
2017-12-25T08:09:18.341Z,78.30
2017-12-25T08:11:45.349Z,78.30
2017-12-25T08:14:12.321Z,78.60
2017-12-25T08:16:39.347Z,78.10
2017-12-25T08:19:05.630Z,77.90
2017-12-25T08:21:31.901Z,77.50
2017-12-25T08:23:58.150Z,77.90
2017-12-25T08:26:25.154Z,78.20
2017-12-25T08:28:51.496Z,78.20
2017-12-25T08:31:17.743Z,78.10
2017-12-25T08:33:44.049Z,78.60
2017-12-25T08:36:10.297Z,79.00
2017-12-25T08:38:36.544Z,79.20
2017-12-25T08:41:03.592Z,78.30
2017-12-25T08:43:30.596Z,79.20
2017-12-25T08:45:56.844Z,79.40
2017-12-25T08:48:23.134Z,78.80
2017-12-25T08:50:49.413Z,78.60
2017-12-25T08:53:15.686Z,78.50
2017-12-25T08:55:42.670Z,78.40
2017-12-25T08:58:08.918Z,78.40
2017-12-25T09:00:35.258Z,78.80
2017-12-25T09:03:01.606Z,78.80
2017-12-25T09:05:28.641Z,78.90
2017-12-25T09:07:55.921Z,78.90
2017-12-25T09:10:22.926Z,79.20
2017-12-25T09:12:49.148Z,79.20
2017-12-25T09:15:15.412Z,79.10
2017-12-25T09:17:41.693Z,79.10
2017-12-25T09:20:07.945Z,77.80
2017-12-25T09:22:34.182Z,77.90
2017-12-25T09:25:00.465Z,78.20
2017-12-25T09:27:27.529Z,78.10
2017-12-25T09:29:53.939Z,77.40
2017-12-25T09:32:20.306Z,77.90
2017-12-25T09:34:47.322Z,79.00
2017-12-25T09:37:13.590Z,78.90
2017-12-25T09:39:39.874Z,78.60
2017-12-25T09:42:06.143Z,78.80
2017-12-25T09:44:32.485Z,78.30
2017-12-25T09:46:58.753Z,78.40
2017-12-25T09:49:25.893Z,77.50
2017-12-25T09:51:52.442Z,77.40
2017-12-25T09:54:22.303Z,77.30
2017-12-25T09:56:48.710Z,77.50
2017-12-25T09:59:15.038Z,78.20
2017-12-25T10:01:41.349Z,78.30
2017-12-25T10:04:07.649Z,79.00
2017-12-25T10:06:34.668Z,80.10
2017-12-25T10:09:00.939Z,80.30
2017-12-25T10:11:27.169Z,80.60
2017-12-25T10:13:53.555Z,81.70
2017-12-25T10:16:19.821Z,81.80
2017-12-25T10:18:46.067Z,82.00
2017-12-25T10:21:12.341Z,82.30
2017-12-25T10:23:38.706Z,81.70
2017-12-25T10:26:04.957Z,81.70
2017-12-25T10:28:32.033Z,82.30
2017-12-25T10:30:59.033Z,81.60
2017-12-25T10:33:25.437Z,81.60
2017-12-25T10:35:51.696Z,81.20
2017-12-25T10:38:17.937Z,80.60
2017-12-25T10:40:44.206Z,79.00
2017-12-25T10:43:10.453Z,80.00
2017-12-25T10:45:37.452Z,80.10
2017-12-25T10:48:03.734Z,80.00
2017-12-25T10:50:29.989Z,79.10
2017-12-25T10:52:57.010Z,78.60
2017-12-25T10:55:23.466Z,78.60
2017-12-25T10:57:51.061Z,78.30
2017-12-25T11:00:17.516Z,78.30
2017-12-25T11:02:43.772Z,76.90
2017-12-25T11:05:09.995Z,77.40
2017-12-25T11:07:36.273Z,77.00
2017-12-25T11:10:03.319Z,77.10
2017-12-25T11:12:29.581Z,77.10
2017-12-25T11:14:55.837Z,76.10
2017-12-25T11:17:22.113Z,75.40
2017-12-25T11:19:48.367Z,75.10
2017-12-25T11:22:15.362Z,77.20
2017-12-25T11:24:41.600Z,76.50
2017-12-25T11:27:08.593Z,75.30
2017-12-25T11:29:34.841Z,75.30
2017-12-25T11:32:01.106Z,75.40
2017-12-25T11:34:27.349Z,74.50
2017-12-25T11:36:54.473Z,74.40
2017-12-25T11:39:20.705Z,74.40
2017-12-25T11:41:46.961Z,74.40
2017-12-25T11:44:13.206Z,74.10
2017-12-25T11:46:39.596Z,74.20
2017-12-25T11:49:06.592Z,75.10
2017-12-25T11:51:32.929Z,74.40
2017-12-25T11:53:59.203Z,74.50
2017-12-25T11:58:52.370Z,73.50
2017-12-25T12:01:18.646Z,73.40
2017-12-25T12:03:44.925Z,73.60
2017-12-25T12:06:11.217Z,73.90
2017-12-25T12:08:37.458Z,74.40
2017-12-25T12:11:03.705Z,73.00
2017-12-25T12:13:29.933Z,72.70
2017-12-25T12:15:56.230Z,74.10
2017-12-25T12:18:23.236Z,72.80
2017-12-25T12:20:49.468Z,72.80
2017-12-25T12:23:15.882Z,72.80
2017-12-25T12:25:42.133Z,73.00
2017-12-25T12:28:09.106Z,73.40
2017-12-25T12:30:35.357Z,73.40
2017-12-25T12:33:01.605Z,73.30
2017-12-25T12:35:27.885Z,73.40
2017-12-25T12:37:54.160Z,73.20
2017-12-25T12:40:20.408Z,73.20
2017-12-25T12:42:46.673Z,74.00
2017-12-25T12:45:13.041Z,72.30
2017-12-25T12:47:40.060Z,73.60
2017-12-25T12:50:06.297Z,73.40
2017-12-25T12:52:32.674Z,73.50
2017-12-25T12:54:58.914Z,72.60
2017-12-25T12:57:25.141Z,72.80
2017-12-25T12:59:52.129Z,73.30
2017-12-25T13:02:19.110Z,73.40
2017-12-25T13:04:45.374Z,73.40
2017-12-25T13:07:11.598Z,73.80
2017-12-25T13:09:37.893Z,72.90
2017-12-25T13:12:04.866Z,72.20
2017-12-25T13:14:31.085Z,72.20
2017-12-25T13:16:57.341Z,72.80
2017-12-25T13:19:24.350Z,70.90
2017-12-25T13:21:50.593Z,70.80
2017-12-25T13:24:16.835Z,71.20
2017-12-25T13:26:43.056Z,70.60
2017-12-25T13:29:09.305Z,70.10
2017-12-25T13:31:35.570Z,69.20
2017-12-25T13:34:01.790Z,69.80
2017-12-25T13:36:28.778Z,69.10
2017-12-25T13:38:55.066Z,69.10
2017-12-25T13:41:21.350Z,69.50
2017-12-25T13:43:47.589Z,69.60
2017-12-25T13:46:13.805Z,69.30
2017-12-25T13:48:40.056Z,67.10
2017-12-25T13:51:06.301Z,67.60
2017-12-25T13:53:32.541Z,67.50
2017-12-25T13:55:58.793Z,68.00
2017-12-25T13:58:25.145Z,67.50
2017-12-25T14:00:51.367Z,69.20
2017-12-25T14:03:17.590Z,68.80
2017-12-25T14:05:43.826Z,68.70
2017-12-25T14:08:10.795Z,67.60
2017-12-25T14:10:37.018Z,67.60
2017-12-25T14:13:03.997Z,66.70
2017-12-25T14:15:30.241Z,66.60
2017-12-25T14:17:56.473Z,66.70
2017-12-25T14:20:22.742Z,66.90
2017-12-25T14:22:48.964Z,66.20
2017-12-25T14:25:15.244Z,66.90
2017-12-25T14:27:41.489Z,67.80
2017-12-25T14:30:07.721Z,67.50
2017-12-25T14:32:33.978Z,67.20
2017-12-25T14:35:00.143Z,67.00
2017-12-25T14:37:30.390Z,67.50
2017-12-25T14:39:56.720Z,66.50
2017-12-25T14:42:22.953Z,67.70
2017-12-25T14:44:49.912Z,67.20
2017-12-25T14:47:16.864Z,67.20
2017-12-25T14:49:43.926Z,67.30
2017-12-25T14:52:10.032Z,67.20
2017-12-25T14:54:36.265Z,66.50
2017-12-25T14:57:02.494Z,67.00
2017-12-25T14:59:28.717Z,67.50
2017-12-25T15:01:55.045Z,66.70
2017-12-25T15:04:22.006Z,67.90
2017-12-25T15:06:48.979Z,67.80
2017-12-25T15:09:15.188Z,67.80
2017-12-25T15:11:42.149Z,68.20
2017-12-25T15:14:09.133Z,67.70
2017-12-25T15:16:36.090Z,67.50
2017-12-25T15:19:02.139Z,67.50
2017-12-25T15:21:28.336Z,68.60
2017-12-25T15:23:55.300Z,67.70
2017-12-25T15:26:21.409Z,67.60
2017-12-25T15:28:48.194Z,68.30
2017-12-25T15:31:14.300Z,68.30
2017-12-25T15:33:41.077Z,69.20
2017-12-25T15:36:07.133Z,69.10
2017-12-25T15:38:33.173Z,69.20
2017-12-25T15:40:59.206Z,69.30
2017-12-25T15:43:25.462Z,68.90
2017-12-25T15:45:51.698Z,69.50
2017-12-25T15:48:17.917Z,69.20
2017-12-25T15:50:44.865Z,69.30
2017-12-25T15:53:10.954Z,69.30
2017-12-25T15:55:37.174Z,69.00
2017-12-25T15:58:03.639Z,69.30
2017-12-25T16:00:29.866Z,68.90
2017-12-25T16:02:56.097Z,68.10
2017-12-25T16:05:22.349Z,67.70
2017-12-25T16:07:48.669Z,67.80
2017-12-25T16:10:14.946Z,67.30
2017-12-25T16:12:41.166Z,68.10
2017-12-25T16:15:07.380Z,68.20
2017-12-25T16:17:33.761Z,66.90
2017-12-25T16:20:00.023Z,69.10
2017-12-25T16:22:26.437Z,69.10
2017-12-25T16:24:52.677Z,69.50
2017-12-25T16:27:18.909Z,69.50
2017-12-25T16:29:45.225Z,69.10
2017-12-25T16:32:11.520Z,69.00
2017-12-25T16:34:37.795Z,69.30
2017-12-25T16:37:04.031Z,70.10
2017-12-25T16:39:30.306Z,70.50
2017-12-25T16:41:56.619Z,70.60
2017-12-25T16:44:22.789Z,70.70
2017-12-25T16:46:49.017Z,70.50
2017-12-25T16:49:15.994Z,70.90
2017-12-25T16:51:43.009Z,70.60
2017-12-25T16:54:09.302Z,70.60
2017-12-25T16:56:35.477Z,70.60
2017-12-25T16:59:01.705Z,69.90
2017-12-25T17:01:27.961Z,71.00
2017-12-25T17:03:54.186Z,70.20
2017-12-25T17:06:20.435Z,70.60
2017-12-25T17:08:46.658Z,70.60
2017-12-25T17:11:12.873Z,71.40
2017-12-25T17:13:39.302Z,70.90
2017-12-25T17:16:05.504Z,70.80
2017-12-25T17:18:31.749Z,71.00
2017-12-25T17:20:57.985Z,71.30
2017-12-25T17:23:24.225Z,71.80
2017-12-25T17:25:50.485Z,71.50
2017-12-25T17:28:17.421Z,72.70
2017-12-25T17:30:43.662Z,72.80
2017-12-25T17:33:09.945Z,72.50
2017-12-25T17:35:36.917Z,72.50
2017-12-25T17:38:03.152Z,72.20
2017-12-25T17:40:29.675Z,72.40
2017-12-25T17:42:56.023Z,72.80
2017-12-25T17:45:23.024Z,72.20
2017-12-25T17:47:49.255Z,72.10
2017-12-25T17:50:15.537Z,72.30
2017-12-25T17:52:41.831Z,72.00
2017-12-25T17:55:08.121Z,72.30
2017-12-25T17:57:34.360Z,71.10
2017-12-25T18:00:00.734Z,72.10
2017-12-25T18:02:27.745Z,71.30
2017-12-25T18:04:54.038Z,71.30
2017-12-25T18:07:20.997Z,70.40
2017-12-25T18:09:47.976Z,68.70
2017-12-25T18:12:14.283Z,68.70
2017-12-25T18:14:41.316Z,68.60
2017-12-25T18:17:07.569Z,68.50
2017-12-25T18:19:33.834Z,68.80
2017-12-25T18:22:00.829Z,69.10
2017-12-25T18:24:27.076Z,69.10
2017-12-25T18:26:53.372Z,68.80
2017-12-25T18:29:19.614Z,69.40
2017-12-25T18:31:45.893Z,70.10
2017-12-25T18:34:12.179Z,70.10
2017-12-25T18:36:39.172Z,70.00
2017-12-25T18:39:06.180Z,70.70
2017-12-25T18:41:33.305Z,70.80
2017-12-25T18:43:59.580Z,70.80
2017-12-25T18:46:25.808Z,69.80
2017-12-25T18:48:52.035Z,70.80
2017-12-25T18:51:18.267Z,70.90
2017-12-25T18:53:44.493Z,70.40
2017-12-25T18:56:10.781Z,70.70
2017-12-25T18:58:37.025Z,71.30
2017-12-25T19:01:03.289Z,71.70
2017-12-25T19:03:29.497Z,72.50
2017-12-25T19:05:55.731Z,71.70
2017-12-25T19:08:21.981Z,71.70
2017-12-25T19:10:48.198Z,71.60
2017-12-25T19:13:14.478Z,71.00
2017-12-25T19:15:40.725Z,70.60
2017-12-25T19:18:06.925Z,71.20
2017-12-25T19:20:33.132Z,70.60
2017-12-25T19:22:59.389Z,70.10
2017-12-25T19:25:25.625Z,70.50
2017-12-25T19:27:51.869Z,70.10
2017-12-25T19:30:18.104Z,71.10
2017-12-25T19:32:45.094Z,70.80
2017-12-25T19:35:11.312Z,70.70
2017-12-25T19:37:37.558Z,70.20
2017-12-25T19:40:03.801Z,70.80
2017-12-25T19:42:30.768Z,70.40
2017-12-25T19:44:57.032Z,70.30
2017-12-25T19:47:24.053Z,69.90
2017-12-25T19:49:50.300Z,69.90
2017-12-25T19:52:16.521Z,70.50
2017-12-25T19:54:42.741Z,70.10
2017-12-25T19:57:09.110Z,69.50
2017-12-25T19:59:35.350Z,70.00
2017-12-25T20:02:01.655Z,69.80
2017-12-25T20:04:27.878Z,70.10
2017-12-25T20:06:54.097Z,70.90
2017-12-25T20:09:20.319Z,70.40
2017-12-25T20:11:47.773Z,71.30
2017-12-25T20:14:14.785Z,72.10
2017-12-25T20:16:41.029Z,72.00
2017-12-25T20:19:07.256Z,71.70
2017-12-25T20:21:33.540Z,71.90
2017-12-25T20:23:59.759Z,72.00
2017-12-25T20:26:26.754Z,70.80
2017-12-25T20:28:53.717Z,70.60
2017-12-25T20:31:20.011Z,70.50
2017-12-25T20:33:46.310Z,70.70
2017-12-25T20:36:12.566Z,70.80
2017-12-25T20:38:38.845Z,70.20
2017-12-25T20:41:05.881Z,69.40
2017-12-25T20:43:32.126Z,69.30
2017-12-25T20:45:59.284Z,69.30
2017-12-25T20:48:26.344Z,68.00
2017-12-25T20:50:52.637Z,67.30
2017-12-25T20:53:19.681Z,68.90
2017-12-25T20:55:46.010Z,68.90
2017-12-25T20:58:12.280Z,69.60
2017-12-25T21:00:38.512Z,69.50
2017-12-25T21:03:05.517Z,68.50
2017-12-25T21:05:31.775Z,68.40
2017-12-25T21:07:58.027Z,68.50
2017-12-25T21:10:24.292Z,68.60
2017-12-25T21:12:50.536Z,68.90
2017-12-25T21:15:17.582Z,69.20
2017-12-25T21:17:43.829Z,69.10
2017-12-25T21:20:10.132Z,70.10
2017-12-25T21:22:36.409Z,69.90
2017-12-25T21:25:02.872Z,70.50
2017-12-25T21:27:29.874Z,71.00
2017-12-25T21:29:56.938Z,71.10
2017-12-25T21:32:23.229Z,71.00
2017-12-25T21:34:49.478Z,70.40
2017-12-25T21:37:16.586Z,71.20
2017-12-25T21:39:42.869Z,71.20
2017-12-25T21:42:09.871Z,70.30
2017-12-25T21:44:36.105Z,70.10
2017-12-25T21:47:02.413Z,70.50
2017-12-25T21:49:29.397Z,69.80
2017-12-25T21:51:55.705Z,69.60
2017-12-25T21:54:22.761Z,68.90
2017-12-25T21:56:49.752Z,68.90
2017-12-25T21:59:16.750Z,68.40
2017-12-25T22:01:43.034Z,68.30
2017-12-25T22:04:09.297Z,69.70
2017-12-25T22:06:36.269Z,70.10
2017-12-25T22:09:02.571Z,70.10
2017-12-25T22:11:28.822Z,71.00
2017-12-25T22:13:55.081Z,71.20
2017-12-25T22:16:21.312Z,71.50
2017-12-25T22:18:48.366Z,71.90
2017-12-25T22:21:15.384Z,72.00
2017-12-25T22:23:41.669Z,72.00
2017-12-25T22:26:07.942Z,72.30
2017-12-25T22:28:34.201Z,71.70
2017-12-25T22:31:00.438Z,71.80
2017-12-25T22:33:26.694Z,71.70
2017-12-25T22:35:53.707Z,72.50
2017-12-25T22:38:20.757Z,72.20
2017-12-25T22:40:47.035Z,71.90
2017-12-25T22:43:14.043Z,72.80
2017-12-25T22:45:41.089Z,73.20
2017-12-25T22:48:07.386Z,73.10
2017-12-25T22:50:33.706Z,72.70
2017-12-25T22:52:59.996Z,72.40
2017-12-25T22:55:27.016Z,72.70
2017-12-25T22:57:53.315Z,72.60
2017-12-25T23:00:19.632Z,72.80
2017-12-25T23:02:46.022Z,72.80
2017-12-25T23:05:12.313Z,72.70
2017-12-25T23:07:38.525Z,73.30
2017-12-25T23:10:05.541Z,73.20
2017-12-25T23:12:31.793Z,73.30
2017-12-25T23:14:58.133Z,74.40
2017-12-25T23:17:24.394Z,74.20
2017-12-25T23:19:51.401Z,73.80
2017-12-25T23:22:17.653Z,73.70
2017-12-25T23:24:44.727Z,73.80
2017-12-25T23:27:11.740Z,74.40
2017-12-25T23:29:37.980Z,74.50
2017-12-25T23:32:04.254Z,75.40
2017-12-25T23:34:30.524Z,74.80
2017-12-25T23:36:56.769Z,74.40
2017-12-25T23:39:23.886Z,73.80
2017-12-25T23:41:50.125Z,73.60
2017-12-25T23:44:16.366Z,72.60
2017-12-25T23:46:42.627Z,73.40
2017-12-25T23:49:08.906Z,72.90
2017-12-25T23:51:35.134Z,72.90
2017-12-25T23:54:02.136Z,72.70
2017-12-25T23:56:28.399Z,72.70
2017-12-25T23:58:54.665Z,72.40
